TAP1906 LPFR-LPPT
Flight info
| Callsign | TAP1906 |
|---|---|
| Flight time | N/A |
| Altitude | 14000 |
| Route | FR612 DCT ODEMI DCT ESP DCT PESEX DCT NETVO DCT OKNIB DCT MM02 |
| Aircraft | A320/M-SDE3FGHIRWY/LB1 |
Departure
| Time | 2026-05-07 20:37 |
|---|---|
| Airport | Faro - Gago Coutinho International Airport (LPFR) |
Arrival
| Time | N/A |
|---|---|
| Airport | Lisbon Humberto Delgado Airport (LPPT) |
| Time | Latitude | Longitude | Altitude | Speed | Heading |
|---|---|---|---|---|---|
| 2026-05-07 20:24 | 37.01893 | -7.96622 | 39 ft | 0 kts | 9° |
| 2026-05-07 20:29 | 37.01888 | -7.96623 | 39 ft | 2 kts | 11° |
| 2026-05-07 20:29 | 37.01869 | -7.96628 | 39 ft | 3 kts | 17° |
| 2026-05-07 20:30 | 37.01850 | -7.96636 | 39 ft | 3 kts | 26° |
| 2026-05-07 20:30 | 37.01833 | -7.96649 | 39 ft | 3 kts | 38° |
| 2026-05-07 20:30 | 37.01818 | -7.96666 | 39 ft | 3 kts | 56° |
| 2026-05-07 20:30 | 37.01809 | -7.96687 | 39 ft | 3 kts | 85° |
| 2026-05-07 20:31 | 37.01809 | -7.96700 | 39 ft | 0 kts | 100° |
| 2026-05-07 20:31 | 37.01809 | -7.96699 | 39 ft | 0 kts | 100° |
| 2026-05-07 20:33 | 37.01803 | -7.96653 | 39 ft | 12 kts | 97° |
| 2026-05-07 20:33 | 37.01789 | -7.96552 | 39 ft | 6 kts | 100° |
| 2026-05-07 20:33 | 37.01779 | -7.96486 | 39 ft | 12 kts | 100° |
| 2026-05-07 20:33 | 37.01760 | -7.96348 | 39 ft | 17 kts | 100° |
| 2026-05-07 20:34 | 37.01740 | -7.96210 | 39 ft | 14 kts | 100° |
| 2026-05-07 20:34 | 37.01718 | -7.96097 | 39 ft | 13 kts | 131° |
| 2026-05-07 20:34 | 37.01635 | -7.96084 | 39 ft | 12 kts | 190° |
| 2026-05-07 20:34 | 37.01562 | -7.96066 | 39 ft | 12 kts | 117° |
| 2026-05-07 20:35 | 37.01541 | -7.95972 | 39 ft | 11 kts | 104° |
| 2026-05-07 20:35 | 37.01526 | -7.95896 | 39 ft | 8 kts | 103° |
| 2026-05-07 20:35 | 37.01479 | -7.95833 | 39 ft | 9 kts | 160° |
| 2026-05-07 20:35 | 37.01426 | -7.95844 | 39 ft | 7 kts | 191° |
| 2026-05-07 20:36 | 37.01377 | -7.95856 | 39 ft | 7 kts | 191° |
| 2026-05-07 20:36 | 37.01344 | -7.95888 | 39 ft | 6 kts | 258° |
| 2026-05-07 20:36 | 37.01353 | -7.95950 | 39 ft | 15 kts | 280° |
| 2026-05-07 20:36 | 37.01411 | -7.96361 | 39 ft | 83 kts | 280° |
| 2026-05-07 20:37 | 37.01548 | -7.97335 | 45 ft | 140 kts | 279° |
| 2026-05-07 20:37 | 37.01717 | -7.98562 | 504 ft | 146 kts | 279° |
| 2026-05-07 20:37 | 37.01892 | -7.99848 | 1165 ft | 153 kts | 280° |
| 2026-05-07 20:37 | 37.02075 | -8.01173 | 1816 ft | 164 kts | 281° |
| 2026-05-07 20:38 | 37.02302 | -8.02655 | 2238 ft | 181 kts | 282° |
| 2026-05-07 20:38 | 37.02547 | -8.04269 | 2750 ft | 195 kts | 282° |
| 2026-05-07 20:38 | 37.02801 | -8.05976 | 3416 ft | 203 kts | 282° |
| 2026-05-07 20:38 | 37.03063 | -8.07753 | 4073 ft | 213 kts | 283° |
| 2026-05-07 20:39 | 37.03243 | -8.08967 | 4581 ft | 215 kts | 283° |
| 2026-05-07 20:39 | 37.03534 | -8.10830 | 5296 ft | 221 kts | 287° |
| 2026-05-07 20:39 | 37.04226 | -8.12559 | 5878 ft | 227 kts | 314° |
| 2026-05-07 20:39 | 37.05570 | -8.13738 | 6210 ft | 247 kts | 334° |
| 2026-05-07 20:40 | 37.07168 | -8.14678 | 6850 ft | 259 kts | 336° |
| 2026-05-07 20:40 | 37.08842 | -8.15629 | 7647 ft | 268 kts | 337° |
| 2026-05-07 20:40 | 37.10565 | -8.16596 | 8501 ft | 274 kts | 337° |
| 2026-05-07 20:40 | 37.12324 | -8.17577 | 9356 ft | 279 kts | 337° |
| 2026-05-07 20:41 | 37.14114 | -8.18565 | 10214 ft | 285 kts | 336° |
| 2026-05-07 20:41 | 37.16016 | -8.19609 | 10510 ft | 311 kts | 336° |
| 2026-05-07 20:41 | 37.18026 | -8.20721 | 10994 ft | 328 kts | 335° |
| 2026-05-07 20:41 | 37.20151 | -8.21896 | 11627 ft | 339 kts | 335° |
| 2026-05-07 20:42 | 37.22345 | -8.23113 | 12301 ft | 348 kts | 335° |
| 2026-05-07 20:42 | 37.24582 | -8.24355 | 13020 ft | 355 kts | 335° |
| 2026-05-07 20:42 | 37.26871 | -8.25625 | 13640 ft | 364 kts | 334° |
| 2026-05-07 20:42 | 37.29198 | -8.26916 | 13841 ft | 365 kts | 334° |
| 2026-05-07 20:43 | 37.31522 | -8.28207 | 13892 ft | 365 kts | 334° |
| 2026-05-07 20:43 | 37.33838 | -8.29495 | 13905 ft | 364 kts | 334° |
| 2026-05-07 20:43 | 37.36158 | -8.30785 | 13907 ft | 364 kts | 334° |
| 2026-05-07 20:43 | 37.38447 | -8.32059 | 13908 ft | 364 kts | 334° |
| 2026-05-07 20:44 | 37.40762 | -8.33348 | 13908 ft | 363 kts | 334° |
| 2026-05-07 20:44 | 37.43074 | -8.34636 | 13908 ft | 363 kts | 334° |
| 2026-05-07 20:44 | 37.45391 | -8.35927 | 13908 ft | 363 kts | 334° |
| 2026-05-07 20:44 | 37.47702 | -8.37216 | 13909 ft | 363 kts | 334° |
| 2026-05-07 20:45 | 37.49998 | -8.38558 | 13907 ft | 362 kts | 329° |
| 2026-05-07 20:45 | 37.52123 | -8.40246 | 13912 ft | 361 kts | 324° |
| 2026-05-07 20:45 | 37.54192 | -8.42039 | 13911 ft | 361 kts | 323° |
| 2026-05-07 20:45 | 37.56260 | -8.43841 | 13910 ft | 361 kts | 323° |
| 2026-05-07 20:46 | 37.58312 | -8.45621 | 13911 ft | 361 kts | 323° |
| 2026-05-07 20:46 | 37.60358 | -8.47444 | 13906 ft | 360 kts | 319° |
| 2026-05-07 20:46 | 37.61949 | -8.49840 | 13920 ft | 356 kts | 301° |
| 2026-05-07 20:46 | 37.63524 | -8.52254 | 13909 ft | 360 kts | 317° |